createdAt,value
2018-07-03T00:00:17.084Z,2.30
2018-07-03T00:02:45.693Z,1.87
2018-07-03T00:05:14.346Z,1.67
2018-07-03T00:07:43.295Z,1.93
2018-07-03T00:10:12.688Z,1.47
2018-07-03T00:12:41.365Z,2.30
2018-07-03T00:15:10.025Z,2.23
2018-07-03T00:17:38.813Z,1.50
2018-07-03T00:20:09.188Z,2.10
2018-07-03T00:22:37.821Z,2.20
2018-07-03T00:25:06.403Z,2.03
2018-07-03T00:27:35.207Z,2.10
2018-07-03T00:30:04.060Z,2.00
2018-07-03T00:32:32.683Z,2.03
2018-07-03T00:35:01.400Z,2.10
2018-07-03T00:37:30.049Z,2.60
2018-07-03T00:39:58.784Z,2.77
2018-07-03T00:42:27.808Z,2.33
2018-07-03T00:44:56.389Z,2.30
2018-07-03T00:47:24.988Z,2.07
2018-07-03T00:49:53.842Z,2.10
2018-07-03T00:52:22.448Z,2.30
2018-07-03T00:54:51.056Z,2.07
2018-07-03T00:57:19.755Z,2.30
2018-07-03T00:59:59.381Z,3.33
2018-07-03T01:02:28.012Z,2.57
2018-07-03T01:04:56.700Z,2.23
2018-07-03T01:07:25.347Z,2.90
2018-07-03T01:09:54.196Z,2.37
2018-07-03T01:12:22.928Z,2.40
2018-07-03T01:14:51.752Z,2.20
2018-07-03T01:17:20.731Z,2.50
2018-07-03T01:19:49.407Z,2.50
2018-07-03T01:22:18.507Z,2.37
2018-07-03T01:24:47.247Z,2.47
2018-07-03T01:27:16.093Z,2.57
2018-07-03T01:29:44.723Z,2.40
2018-07-03T01:32:13.675Z,2.17
2018-07-03T01:34:42.571Z,3.00
2018-07-03T01:37:11.188Z,2.00
2018-07-03T01:39:40.376Z,1.90
2018-07-03T01:42:09.079Z,2.63
2018-07-03T01:44:37.785Z,1.83
2018-07-03T01:47:07.127Z,2.67
2018-07-03T01:49:35.881Z,2.27
2018-07-03T01:52:04.544Z,2.70
2018-07-03T01:54:33.151Z,2.80
2018-07-03T01:57:01.713Z,2.73
2018-07-03T01:59:30.616Z,2.43
2018-07-03T02:01:59.279Z,1.90
2018-07-03T02:04:27.873Z,2.27
2018-07-03T02:06:56.671Z,2.57
2018-07-03T02:09:25.293Z,2.13
2018-07-03T02:11:53.980Z,2.27
2018-07-03T02:14:22.620Z,2.03
2018-07-03T02:16:51.349Z,3.37
2018-07-03T02:19:20.037Z,3.13
2018-07-03T02:21:48.653Z,2.93
2018-07-03T02:24:17.479Z,2.90
2018-07-03T02:26:46.092Z,2.90
2018-07-03T02:29:15.049Z,2.27
2018-07-03T02:31:43.749Z,2.30
2018-07-03T02:34:12.280Z,2.53
2018-07-03T02:36:41.861Z,2.30
2018-07-03T02:39:11.985Z,2.90
2018-07-03T02:41:41.196Z,2.73
2018-07-03T02:44:09.821Z,2.80
2018-07-03T02:46:38.555Z,2.53
2018-07-03T02:49:07.427Z,2.30
2018-07-03T02:51:36.080Z,3.00
2018-07-03T02:54:05.008Z,2.20
2018-07-03T02:56:33.645Z,2.40
2018-07-03T02:59:02.228Z,2.43
2018-07-03T03:01:30.978Z,2.40
2018-07-03T03:03:59.920Z,2.40
2018-07-03T03:06:28.587Z,2.60
2018-07-03T03:08:57.628Z,2.33
2018-07-03T03:11:26.367Z,3.20
2018-07-03T03:13:56.449Z,2.73
2018-07-03T03:16:25.261Z,3.27
2018-07-03T03:18:53.961Z,2.40
2018-07-03T03:21:22.608Z,2.57
2018-07-03T03:23:51.693Z,2.50
2018-07-03T03:26:20.504Z,2.60
2018-07-03T03:28:49.225Z,2.57
2018-07-03T03:31:18.055Z,2.93
2018-07-03T03:33:46.761Z,2.63
2018-07-03T03:36:15.392Z,3.20
2018-07-03T03:38:44.339Z,2.60
2018-07-03T03:41:12.948Z,2.83
2018-07-03T03:43:41.556Z,2.50
2018-07-03T03:46:10.220Z,2.60
2018-07-03T03:48:38.817Z,2.47
2018-07-03T03:51:07.650Z,2.30
2018-07-03T03:53:36.780Z,2.50
2018-07-03T03:56:05.831Z,2.67
2018-07-03T03:58:34.611Z,2.37
2018-07-03T04:01:03.471Z,2.90
2018-07-03T04:03:32.167Z,3.00
2018-07-03T04:06:00.973Z,2.43
2018-07-03T04:08:29.693Z,2.53
2018-07-03T04:10:58.320Z,3.03
2018-07-03T04:13:26.903Z,2.43
2018-07-03T04:15:55.936Z,2.20
2018-07-03T04:18:39.988Z,2.40
2018-07-03T04:21:09.481Z,2.47
2018-07-03T04:23:38.876Z,2.30
2018-07-03T04:26:07.764Z,2.60
2018-07-03T04:28:36.677Z,2.43
2018-07-03T04:31:05.477Z,2.97
2018-07-03T04:33:34.104Z,2.33
2018-07-03T04:36:02.831Z,2.20
2018-07-03T04:38:31.540Z,2.77
2018-07-03T04:41:00.159Z,2.80
2018-07-03T04:43:28.985Z,2.50
2018-07-03T04:45:57.652Z,2.97
2018-07-03T04:48:26.224Z,2.70
2018-07-03T04:50:54.947Z,2.90
2018-07-03T04:53:23.592Z,2.80
2018-07-03T04:55:52.124Z,2.30
2018-07-03T04:58:21.200Z,2.70
2018-07-03T05:00:49.715Z,2.63
2018-07-03T05:03:18.339Z,3.30
2018-07-03T05:05:47.360Z,2.70
2018-07-03T05:08:15.987Z,2.70
2018-07-03T05:10:44.583Z,2.57
2018-07-03T05:13:13.260Z,3.10
2018-07-03T05:15:42.025Z,2.67
2018-07-03T05:18:11.281Z,3.03
2018-07-03T05:20:40.220Z,3.17
2018-07-03T05:23:09.020Z,3.00
2018-07-03T05:25:37.644Z,2.30
2018-07-03T05:28:06.373Z,2.67
2018-07-03T05:30:35.047Z,3.47
2018-07-03T05:33:03.901Z,2.17
2018-07-03T05:35:32.827Z,3.00
2018-07-03T05:38:01.529Z,4.43
2018-07-03T05:40:30.256Z,3.43
2018-07-03T05:42:59.137Z,3.90
2018-07-03T05:45:27.847Z,3.40
2018-07-03T05:47:56.512Z,3.33
2018-07-03T05:50:25.467Z,3.10
2018-07-03T05:52:54.100Z,3.17
2018-07-03T05:55:22.679Z,2.80
2018-07-03T05:57:51.415Z,2.77
2018-07-03T06:00:20.109Z,3.83
2018-07-03T06:02:48.733Z,3.03
2018-07-03T06:05:17.864Z,3.30
2018-07-03T06:07:46.531Z,2.93
2018-07-03T06:10:15.116Z,2.83
2018-07-03T06:12:43.857Z,3.37
2018-07-03T06:15:12.891Z,2.90
2018-07-03T06:17:42.076Z,3.50
2018-07-03T06:20:11.239Z,3.20
2018-07-03T06:22:40.292Z,3.07
2018-07-03T06:25:08.833Z,3.27
2018-07-03T06:27:37.516Z,3.50
2018-07-03T06:30:06.175Z,3.47
2018-07-03T06:32:34.734Z,3.20
2018-07-03T06:35:03.720Z,2.87
2018-07-03T06:37:32.433Z,2.47
2018-07-03T06:40:01.424Z,2.60
2018-07-03T06:42:30.117Z,2.80
2018-07-03T06:44:58.806Z,2.47
2018-07-03T06:47:27.356Z,3.30
2018-07-03T06:49:55.952Z,2.53
2018-07-03T06:52:25.670Z,3.03
2018-07-03T06:54:56.439Z,2.53
2018-07-03T06:57:25.987Z,2.87
2018-07-03T06:59:54.672Z,2.83
2018-07-03T07:02:23.756Z,3.30
2018-07-03T07:04:52.544Z,2.70
2018-07-03T07:07:21.227Z,2.80
2018-07-03T07:09:49.896Z,2.10
2018-07-03T07:12:18.856Z,3.47
2018-07-03T07:14:47.553Z,2.80
2018-07-03T07:17:16.741Z,2.47
2018-07-03T07:19:45.433Z,2.30
2018-07-03T07:22:14.321Z,2.40
2018-07-03T07:24:43.200Z,1.97
2018-07-03T07:27:11.836Z,2.17
2018-07-03T07:29:40.886Z,2.03
2018-07-03T07:32:09.552Z,1.93
2018-07-03T07:34:38.309Z,2.13
2018-07-03T07:37:07.045Z,1.40
2018-07-03T07:39:36.205Z,1.40
2018-07-03T07:42:05.132Z,1.90
2018-07-03T07:44:33.855Z,2.00
2018-07-03T07:47:03.009Z,1.80
2018-07-03T07:49:31.658Z,1.50
2018-07-03T07:52:00.324Z,1.50
2018-07-03T07:54:28.931Z,1.00
2018-07-03T07:56:57.707Z,1.73
2018-07-03T07:59:26.313Z,1.23
2018-07-03T08:01:55.026Z,1.20
2018-07-03T08:04:23.631Z,1.60
2018-07-03T08:06:52.312Z,1.40
2018-07-03T08:09:21.069Z,1.70
2018-07-03T08:11:49.828Z,1.30
2018-07-03T08:14:18.521Z,1.53
2018-07-03T08:16:47.208Z,1.47
2018-07-03T08:19:16.086Z,1.80
2018-07-03T08:21:44.676Z,1.63
2018-07-03T08:24:13.810Z,1.37
2018-07-03T08:26:42.696Z,1.53
2018-07-03T08:29:11.335Z,1.30
2018-07-03T08:31:40.364Z,1.00
2018-07-03T08:34:09.019Z,1.30
2018-07-03T08:36:37.588Z,1.70
2018-07-03T08:39:09.327Z,1.43
2018-07-03T08:41:38.040Z,1.67
2018-07-03T08:44:06.733Z,1.40
2018-07-03T08:46:35.652Z,1.20
2018-07-03T08:49:04.827Z,1.27
2018-07-03T08:51:33.498Z,1.40
2018-07-03T08:54:02.232Z,1.90
2018-07-03T08:56:30.871Z,1.57
2018-07-03T08:58:59.672Z,1.57
2018-07-03T09:01:28.589Z,1.30
2018-07-03T09:03:57.236Z,1.83
2018-07-03T09:06:25.943Z,1.70
2018-07-03T09:08:54.844Z,1.47
2018-07-03T09:11:23.603Z,1.47
2018-07-03T09:13:53.688Z,1.33
2018-07-03T09:16:23.479Z,1.50
2018-07-03T09:18:52.153Z,1.70
2018-07-03T09:21:22.124Z,1.23
2018-07-03T09:23:50.925Z,1.10
2018-07-03T09:26:19.772Z,1.10
2018-07-03T09:28:48.809Z,1.23
2018-07-03T09:31:17.656Z,1.57
2018-07-03T09:33:46.793Z,1.00
2018-07-03T09:36:15.429Z,1.10
2018-07-03T09:38:44.205Z,1.50
2018-07-03T09:41:13.132Z,1.07
2018-07-03T09:43:41.820Z,1.30
2018-07-03T09:46:10.877Z,1.63
2018-07-03T09:48:40.764Z,1.07
2018-07-03T09:51:09.375Z,1.23
2018-07-03T09:53:38.361Z,1.10
2018-07-03T09:56:07.574Z,0.97
2018-07-03T09:58:36.372Z,1.57
2018-07-03T10:01:11.101Z,0.80
2018-07-03T10:03:39.792Z,1.00
2018-07-03T10:06:08.408Z,1.20
2018-07-03T10:08:37.235Z,0.87
2018-07-03T10:11:06.044Z,0.80
2018-07-03T10:13:34.577Z,0.80
2018-07-03T10:16:04.500Z,1.10
2018-07-03T10:18:33.482Z,0.90
2018-07-03T10:21:02.801Z,1.77
2018-07-03T10:23:31.612Z,1.20
2018-07-03T10:26:00.676Z,1.00
2018-07-03T10:28:29.331Z,0.90
2018-07-03T10:30:58.912Z,1.03
2018-07-03T10:33:27.536Z,1.07
2018-07-03T10:35:56.275Z,0.80
2018-07-03T10:38:25.149Z,0.90
2018-07-03T10:40:54.455Z,1.00
2018-07-03T10:43:23.219Z,1.03
2018-07-03T10:45:52.124Z,1.00
2018-07-03T10:48:20.676Z,1.00
2018-07-03T10:50:49.415Z,1.03
2018-07-03T10:53:18.042Z,1.00
2018-07-03T10:55:51.177Z,1.10
2018-07-03T10:58:20.076Z,0.80
2018-07-03T11:00:48.709Z,1.30
2018-07-03T11:03:17.530Z,0.90
2018-07-03T11:05:46.141Z,1.00
2018-07-03T11:08:14.881Z,1.00
2018-07-03T11:10:43.444Z,1.20
2018-07-03T11:13:12.491Z,1.00
2018-07-03T11:15:41.208Z,0.78
2018-07-03T11:18:09.927Z,1.47
2018-07-03T11:20:38.639Z,1.67
2018-07-03T11:23:07.180Z,1.30
2018-07-03T11:25:35.895Z,1.20
2018-07-03T11:28:04.519Z,1.50
2018-07-03T11:30:33.067Z,1.33
2018-07-03T11:33:01.764Z,1.40
2018-07-03T11:35:30.498Z,1.73
2018-07-03T11:37:59.199Z,2.07
2018-07-03T11:40:27.810Z,1.57
2018-07-03T11:42:56.569Z,2.00
2018-07-03T11:45:25.152Z,1.93
2018-07-03T11:47:53.736Z,1.93
2018-07-03T11:50:22.410Z,1.60
2018-07-03T11:52:51.108Z,1.77
2018-07-03T11:55:19.841Z,1.90
2018-07-03T11:57:48.443Z,1.50
2018-07-03T12:00:17.567Z,1.50
2018-07-03T12:02:46.331Z,1.90
2018-07-03T12:05:15.299Z,1.80
2018-07-03T12:07:43.942Z,2.37
2018-07-03T12:10:12.720Z,1.80
2018-07-03T12:12:43.592Z,2.17
2018-07-03T12:15:12.144Z,2.50
2018-07-03T12:17:40.840Z,1.80
2018-07-03T12:20:10.395Z,2.00
2018-07-03T12:22:39.009Z,2.70
2018-07-03T12:25:07.722Z,2.20
2018-07-03T12:27:36.649Z,2.10
2018-07-03T12:30:08.149Z,2.30
2018-07-03T12:32:36.765Z,2.67
2018-07-03T12:35:05.658Z,2.83
2018-07-03T12:37:34.232Z,2.60
2018-07-03T12:40:02.963Z,2.27
2018-07-03T12:42:31.583Z,2.40
2018-07-03T12:45:00.631Z,2.70
2018-07-03T12:47:29.860Z,2.83
2018-07-03T12:49:58.485Z,2.30
2018-07-03T12:52:27.285Z,2.23
2018-07-03T12:54:56.275Z,2.83
2018-07-03T12:57:25.044Z,2.60
2018-07-03T12:59:53.727Z,2.53
2018-07-03T13:02:22.679Z,2.60
2018-07-03T13:04:51.303Z,3.20
2018-07-03T13:07:19.886Z,2.50
2018-07-03T13:09:48.512Z,3.40
2018-07-03T13:12:17.152Z,2.93
2018-07-03T13:14:45.738Z,2.97
2018-07-03T13:17:14.456Z,2.60
2018-07-03T13:19:43.068Z,2.70
2018-07-03T13:22:11.668Z,2.60
2018-07-03T13:24:40.252Z,2.57
2018-07-03T13:27:08.855Z,3.07
2018-07-03T13:29:37.456Z,2.37
2018-07-03T13:32:06.472Z,2.50
2018-07-03T13:34:35.123Z,2.00
2018-07-03T13:37:03.735Z,2.03
2018-07-03T13:39:32.455Z,2.37
2018-07-03T13:42:01.029Z,2.53
2018-07-03T13:44:29.975Z,2.07
2018-07-03T13:46:58.803Z,2.30
2018-07-03T13:49:27.441Z,2.50
2018-07-03T13:51:56.119Z,2.17
2018-07-03T13:54:25.051Z,1.90
2018-07-03T13:56:53.588Z,2.20
2018-07-03T13:59:22.135Z,1.93
2018-07-03T14:01:50.826Z,2.30
2018-07-03T14:04:19.768Z,2.17
2018-07-03T14:06:48.315Z,2.90
2018-07-03T14:09:17.172Z,2.77
2018-07-03T14:11:45.764Z,2.10
2018-07-03T14:14:14.484Z,1.80
2018-07-03T14:16:43.279Z,2.00
2018-07-03T14:19:11.870Z,1.70
2018-07-03T14:21:40.620Z,1.90
2018-07-03T14:24:09.253Z,1.70
2018-07-03T14:26:37.881Z,1.70
2018-07-03T14:29:06.894Z,1.70
2018-07-03T14:31:35.485Z,1.50
2018-07-03T14:34:04.092Z,2.17
2018-07-03T14:36:32.734Z,1.40
2018-07-03T14:39:02.110Z,1.87
2018-07-03T14:41:30.650Z,1.50
2018-07-03T14:43:59.660Z,2.03
2018-07-03T14:46:28.584Z,1.47
2018-07-03T14:48:57.122Z,1.90
2018-07-03T14:51:25.810Z,1.60
2018-07-03T14:53:54.424Z,1.70
2018-07-03T14:56:23.075Z,1.60
2018-07-03T14:58:51.984Z,1.53
2018-07-03T15:01:20.708Z,1.90
2018-07-03T15:03:49.339Z,1.67
2018-07-03T15:06:18.085Z,1.70
2018-07-03T15:08:46.855Z,1.43
2018-07-03T15:11:15.490Z,2.57
2018-07-03T15:13:44.071Z,2.57
2018-07-03T15:16:14.035Z,1.90
2018-07-03T15:18:47.882Z,2.10
2018-07-03T15:21:16.634Z,1.80
2018-07-03T15:23:45.279Z,1.90
2018-07-03T15:26:13.851Z,2.30
2018-07-03T15:28:42.719Z,2.13
2018-07-03T15:31:11.796Z,2.50
2018-07-03T15:33:41.336Z,2.20
2018-07-03T15:36:10.935Z,2.30
2018-07-03T15:38:39.554Z,2.00
2018-07-03T15:41:08.672Z,2.00
2018-07-03T15:43:38.067Z,2.17
2018-07-03T15:46:06.711Z,2.73
2018-07-03T15:48:35.331Z,2.90
2018-07-03T15:51:04.983Z,2.47
2018-07-03T15:53:33.974Z,2.33
2018-07-03T15:56:03.773Z,2.40
2018-07-03T15:58:32.779Z,2.63
2018-07-03T16:01:03.345Z,2.50
2018-07-03T16:04:08.322Z,2.23
2018-07-03T16:06:53.114Z,2.37
2018-07-03T16:09:22.152Z,2.10
2018-07-03T16:11:51.783Z,2.50
2018-07-03T16:14:21.303Z,2.93
2018-07-03T16:16:50.038Z,2.57
2018-07-03T16:19:24.821Z,2.43
2018-07-03T16:21:53.450Z,3.07
2018-07-03T16:24:24.708Z,2.47
2018-07-03T16:26:53.754Z,2.67
2018-07-03T16:29:22.363Z,2.87
2018-07-03T16:31:52.751Z,2.50
2018-07-03T16:34:21.527Z,2.50
2018-07-03T16:36:54.536Z,3.03
2018-07-03T16:39:23.347Z,3.20
2018-07-03T16:41:52.196Z,2.60
2018-07-03T16:44:22.443Z,3.10
2018-07-03T16:46:51.229Z,3.50
2018-07-03T16:49:19.879Z,2.90
2018-07-03T16:51:49.267Z,3.80
2018-07-03T16:54:18.999Z,3.43
2018-07-03T16:56:48.394Z,2.97
2018-07-03T16:59:17.379Z,3.43
2018-07-03T17:01:46.728Z,3.10
2018-07-03T17:04:16.311Z,3.17
2018-07-03T17:06:46.147Z,3.70
2018-07-03T17:09:15.106Z,4.03
2018-07-03T17:11:43.864Z,2.80
2018-07-03T17:14:12.563Z,2.70
2018-07-03T17:16:41.791Z,3.00
2018-07-03T17:19:15.699Z,3.10
2018-07-03T17:21:44.613Z,2.83
2018-07-03T17:24:13.331Z,3.20
2018-07-03T17:26:42.010Z,3.23
2018-07-03T17:29:11.074Z,3.40
2018-07-03T17:31:43.791Z,3.13
2018-07-03T17:34:12.522Z,3.37
2018-07-03T17:36:41.215Z,4.10
2018-07-03T17:39:12.344Z,3.87
2018-07-03T17:41:52.125Z,3.70
2018-07-03T17:45:34.434Z,3.37
2018-07-03T17:48:06.178Z,3.70
2018-07-03T17:50:35.384Z,3.23
2018-07-03T17:53:04.336Z,3.30
2018-07-03T17:55:33.729Z,2.90
2018-07-03T17:58:02.359Z,3.60
2018-07-03T18:00:31.415Z,3.20
2018-07-03T18:03:00.382Z,3.47
2018-07-03T18:05:30.274Z,3.07
2018-07-03T18:07:59.311Z,3.90
2018-07-03T18:10:27.892Z,3.00
2018-07-03T18:12:56.811Z,3.40
2018-07-03T18:15:25.474Z,4.00
2018-07-03T18:17:54.055Z,4.20
2018-07-03T18:20:22.862Z,3.50
2018-07-03T18:22:51.427Z,4.50
2018-07-03T18:25:20.785Z,3.90
2018-07-03T18:27:49.563Z,3.40
2018-07-03T18:30:18.139Z,4.13
2018-07-03T18:32:47.641Z,3.87
2018-07-03T18:35:17.174Z,4.50
2018-07-03T18:37:46.552Z,4.80
2018-07-03T18:40:15.267Z,4.50
2018-07-03T18:42:43.925Z,4.50
2018-07-03T18:45:12.708Z,4.40
2018-07-03T18:47:41.445Z,4.40
2018-07-03T18:50:10.488Z,4.83
2018-07-03T18:52:39.055Z,4.83
2018-07-03T18:55:07.824Z,4.40
2018-07-03T18:57:36.636Z,4.73
2018-07-03T19:00:05.961Z,3.90
2018-07-03T19:02:34.491Z,4.80
2018-07-03T19:05:03.511Z,4.30
2018-07-03T19:07:32.074Z,4.67
2018-07-03T19:10:00.748Z,4.20
2018-07-03T19:12:29.703Z,4.43
2018-07-03T19:14:58.335Z,5.10
2018-07-03T19:17:27.111Z,4.30
2018-07-03T19:19:56.036Z,4.50
2018-07-03T19:22:24.712Z,5.07
2018-07-03T19:24:53.278Z,4.87
2018-07-03T19:27:22.007Z,4.60
2018-07-03T19:29:50.658Z,4.73
2018-07-03T19:32:19.526Z,4.73
2018-07-03T19:34:48.259Z,5.20
2018-07-03T19:37:16.993Z,4.27
2018-07-03T19:39:45.606Z,4.60
2018-07-03T19:42:14.194Z,4.40
2018-07-03T19:44:42.843Z,4.47
2018-07-03T19:47:11.541Z,4.07
2018-07-03T19:49:40.610Z,4.67
2018-07-03T19:52:09.224Z,4.50
2018-07-03T19:54:37.963Z,4.50
2018-07-03T19:57:06.835Z,4.13
2018-07-03T19:59:35.487Z,4.67
2018-07-03T20:02:04.215Z,5.13
2018-07-03T20:04:32.993Z,4.93
2018-07-03T20:07:02.067Z,4.33
2018-07-03T20:09:30.832Z,4.63
2018-07-03T20:11:59.950Z,4.67
2018-07-03T20:14:28.528Z,5.33
2018-07-03T20:16:57.202Z,4.70
2018-07-03T20:19:25.936Z,4.80
2018-07-03T20:21:54.818Z,4.93
2018-07-03T20:24:23.681Z,4.70
2018-07-03T20:26:52.608Z,4.43
2018-07-03T20:29:21.142Z,5.73
2018-07-03T20:31:49.999Z,4.90
2018-07-03T20:34:18.912Z,5.23
2018-07-03T20:36:47.623Z,4.40
2018-07-03T20:39:16.386Z,5.47
2018-07-03T20:41:45.335Z,4.70
2018-07-03T20:44:14.570Z,5.03
2018-07-03T20:46:43.267Z,5.80
2018-07-03T20:49:12.313Z,5.43
2018-07-03T20:51:40.962Z,5.20
2018-07-03T20:54:09.608Z,6.20
2018-07-03T20:56:38.278Z,6.20
2018-07-03T20:59:06.920Z,6.43
2018-07-03T21:01:35.623Z,5.70
2018-07-03T21:04:05.036Z,5.87
2018-07-03T21:06:33.683Z,5.73
2018-07-03T21:09:02.369Z,5.40
2018-07-03T21:11:31.350Z,5.57
2018-07-03T21:14:00.233Z,5.47
2018-07-03T21:16:28.828Z,4.97
2018-07-03T21:18:58.076Z,4.90
2018-07-03T21:21:26.827Z,5.67
2018-07-03T21:23:55.407Z,6.47
2018-07-03T21:26:24.256Z,6.20
2018-07-03T21:28:52.943Z,5.70
2018-07-03T21:31:21.662Z,5.03
2018-07-03T21:33:50.471Z,5.30
2018-07-03T21:36:19.140Z,6.20
2018-07-03T21:38:48.051Z,5.90
2018-07-03T21:41:16.750Z,6.53
2018-07-03T21:43:45.506Z,6.10
2018-07-03T21:46:14.095Z,6.70
2018-07-03T21:48:42.906Z,5.87
2018-07-03T21:51:11.792Z,5.53
2018-07-03T21:53:40.375Z,6.93
2018-07-03T21:56:09.790Z,6.27
2018-07-03T21:58:38.542Z,6.60
2018-07-03T22:01:07.133Z,6.23
2018-07-03T22:03:36.012Z,6.43
2018-07-03T22:06:06.611Z,6.50
2018-07-03T22:08:36.337Z,7.13
2018-07-03T22:11:05.199Z,7.20
2018-07-03T22:13:33.736Z,6.23
2018-07-03T22:16:02.867Z,5.97
2018-07-03T22:18:31.714Z,6.50
2018-07-03T22:21:00.388Z,6.13
2018-07-03T22:23:28.945Z,5.97
2018-07-03T22:25:57.561Z,7.73
2018-07-03T22:28:26.162Z,5.93
2018-07-03T22:30:54.851Z,6.37
2018-07-03T22:33:23.512Z,7.03
2018-07-03T22:35:52.231Z,7.03
2018-07-03T22:38:20.834Z,7.90
2018-07-03T22:40:50.237Z,7.50
2018-07-03T22:43:18.919Z,8.40
2018-07-03T22:45:47.647Z,7.53
2018-07-03T22:48:16.415Z,6.80
2018-07-03T22:50:49.070Z,8.10
2018-07-03T22:53:18.018Z,7.40
2018-07-03T22:55:46.710Z,7.40
2018-07-03T22:58:15.544Z,7.40
2018-07-03T23:00:44.358Z,6.83
2018-07-03T23:03:13.077Z,7.63
2018-07-03T23:05:41.694Z,7.90
2018-07-03T23:08:10.348Z,6.93
2018-07-03T23:10:39.473Z,7.00
2018-07-03T23:13:08.398Z,7.27
2018-07-03T23:15:37.180Z,7.10
2018-07-03T23:18:06.110Z,8.17
2018-07-03T23:20:36.091Z,7.57
2018-07-03T23:23:06.505Z,7.23
2018-07-03T23:25:35.236Z,6.50
2018-07-03T23:28:03.947Z,7.00
2018-07-03T23:30:32.507Z,6.00
2018-07-03T23:33:01.557Z,6.70
2018-07-03T23:35:31.097Z,6.10
2018-07-03T23:38:00.754Z,7.57
2018-07-03T23:40:32.238Z,6.83
2018-07-03T23:43:01.594Z,7.50
2018-07-03T23:45:40.963Z,8.00
2018-07-03T23:48:20.799Z,7.10
2018-07-03T23:51:00.849Z,6.90
2018-07-03T23:53:40.783Z,8.70
2018-07-03T23:56:20.651Z,7.30
2018-07-03T23:59:00.433Z,7.07
